createdAt,value
2023-02-28T00:01:35.930Z,69.47
2023-02-28T00:04:03.023Z,69.43
2023-02-28T00:06:29.715Z,69.92
2023-02-28T00:08:56.923Z,69.59
2023-02-28T00:11:26.093Z,69.57
2023-02-28T00:13:52.709Z,69.61
2023-02-28T00:16:22.136Z,70.12
2023-02-28T00:18:49.220Z,69.79
2023-02-28T00:21:17.224Z,70.11
2023-02-28T00:23:44.678Z,70.55
2023-02-28T00:26:13.867Z,70.30
2023-02-28T00:28:40.477Z,70.12
2023-02-28T00:31:07.171Z,70.50
2023-02-28T00:33:36.521Z,70.34
2023-02-28T00:36:08.435Z,70.56
2023-02-28T00:38:37.749Z,70.98
2023-02-28T00:41:08.225Z,70.28
2023-02-28T00:43:39.436Z,71.23
2023-02-28T00:46:06.463Z,70.40
2023-02-28T00:48:33.520Z,70.50
2023-02-28T00:51:00.219Z,70.87
2023-02-28T00:53:26.906Z,70.23
2023-02-28T00:55:57.901Z,70.82
2023-02-28T00:58:24.492Z,71.05
2023-02-28T01:00:53.735Z,71.14
2023-02-28T01:03:24.599Z,71.00
2023-02-28T01:05:51.905Z,71.21
2023-02-28T01:08:18.475Z,71.36
2023-02-28T01:10:45.227Z,71.24
2023-02-28T01:13:13.124Z,71.46
2023-02-28T01:15:44.511Z,71.78
2023-02-28T01:18:11.195Z,71.60
2023-02-28T01:20:38.711Z,71.96
2023-02-28T01:23:05.258Z,72.17
2023-02-28T01:25:31.965Z,71.88
2023-02-28T01:28:00.971Z,72.46
2023-02-28T01:30:27.654Z,71.97
2023-02-28T01:32:54.591Z,71.80
2023-02-28T01:35:21.577Z,72.27
2023-02-28T01:37:48.139Z,72.14
2023-02-28T01:40:15.966Z,72.03
2023-02-28T01:42:44.829Z,72.04
2023-02-28T01:45:28.245Z,72.17
2023-02-28T01:48:08.960Z,71.56
2023-02-28T01:50:42.559Z,71.90
2023-02-28T01:53:19.044Z,72.10
2023-02-28T01:55:49.346Z,72.21
2023-02-28T01:58:16.823Z,71.86
2023-02-28T02:00:43.801Z,71.57
2023-02-28T02:03:17.453Z,71.86
2023-02-28T02:05:48.494Z,71.96
2023-02-28T02:08:22.199Z,72.12
2023-02-28T02:11:02.075Z,71.87
2023-02-28T02:13:59.645Z,71.50
2023-02-28T02:16:55.074Z,71.08
2023-02-28T02:19:43.744Z,71.09
2023-02-28T02:22:22.789Z,71.47
2023-02-28T02:25:08.194Z,71.29
2023-02-28T02:28:04.738Z,71.26
2023-02-28T02:30:55.717Z,70.96
2023-02-28T02:33:46.803Z,71.23
2023-02-28T02:36:30.954Z,70.82
2023-02-28T02:39:32.916Z,70.85
2023-02-28T02:42:04.717Z,70.92
2023-02-28T02:44:45.592Z,71.10
2023-02-28T02:47:18.944Z,71.19
2023-02-28T02:49:53.683Z,71.44
2023-02-28T02:52:25.108Z,71.44
2023-02-28T02:54:57.830Z,71.43
2023-02-28T02:57:32.703Z,71.38
2023-02-28T03:00:01.526Z,70.99
2023-02-28T03:02:35.433Z,71.59
2023-02-28T03:05:07.706Z,71.27
2023-02-28T03:07:34.311Z,71.79
2023-02-28T03:10:00.908Z,71.48
2023-02-28T03:12:42.581Z,71.34
2023-02-28T03:15:27.877Z,70.94
2023-02-28T03:17:56.764Z,70.80
2023-02-28T03:20:35.444Z,71.00
2023-02-28T03:23:11.029Z,71.58
2023-02-28T03:26:02.427Z,70.96
2023-02-28T03:28:54.799Z,70.80
2023-02-28T03:31:31.563Z,70.67
2023-02-28T03:34:20.823Z,70.90
2023-02-28T03:36:54.861Z,70.68
2023-02-28T03:39:57.266Z,70.83
2023-02-28T03:42:30.663Z,70.52
2023-02-28T03:45:20.932Z,70.44
2023-02-28T03:47:56.370Z,70.36
2023-02-28T03:50:28.228Z,70.60
2023-02-28T03:53:02.469Z,70.39
2023-02-28T03:55:36.566Z,70.30
2023-02-28T03:58:13.527Z,70.18
2023-02-28T04:00:47.480Z,70.50
2023-02-28T04:03:17.351Z,70.82
2023-02-28T04:05:54.035Z,70.89
2023-02-28T04:08:23.777Z,70.90
2023-02-28T04:11:02.494Z,70.66
2023-02-28T04:13:31.346Z,70.98
2023-02-28T04:15:57.969Z,71.17
2023-02-28T04:18:24.718Z,70.71
2023-02-28T04:20:53.848Z,70.91
2023-02-28T04:23:20.529Z,70.74
2023-02-28T04:25:47.062Z,71.03
2023-02-28T04:28:16.209Z,71.27
2023-02-28T04:30:44.842Z,71.07
2023-02-28T04:33:13.916Z,71.16
2023-02-28T04:35:40.584Z,71.00
2023-02-28T04:38:07.224Z,71.05
2023-02-28T04:40:33.840Z,71.08
2023-02-28T04:43:05.271Z,70.94
2023-02-28T04:45:34.930Z,70.93
2023-02-28T04:48:01.534Z,71.19
2023-02-28T04:50:28.165Z,70.55
2023-02-28T04:52:55.660Z,70.74
2023-02-28T04:55:25.203Z,70.85
2023-02-28T04:57:51.781Z,71.11
2023-02-28T05:00:18.703Z,70.70
2023-02-28T05:02:45.306Z,70.91
2023-02-28T05:05:13.077Z,71.08
2023-02-28T05:07:39.604Z,70.43
2023-02-28T05:10:06.664Z,70.92
2023-02-28T05:12:33.260Z,70.83
2023-02-28T05:14:59.905Z,70.70
2023-02-28T05:17:31.261Z,70.47
2023-02-28T05:20:13.440Z,70.69
2023-02-28T05:22:45.013Z,71.05
2023-02-28T05:25:18.783Z,70.46
2023-02-28T05:27:45.529Z,70.21
2023-02-28T05:30:12.443Z,70.56
2023-02-28T05:32:45.365Z,70.16
2023-02-28T05:35:12.886Z,70.46
2023-02-28T05:37:40.079Z,70.51
2023-02-28T05:40:08.697Z,70.94
2023-02-28T05:42:37.883Z,70.40
2023-02-28T05:45:08.014Z,70.33
2023-02-28T05:47:35.646Z,70.79
2023-02-28T05:50:05.264Z,70.65
2023-02-28T05:52:32.405Z,70.82
2023-02-28T05:54:59.341Z,70.92
2023-02-28T05:57:25.938Z,70.51
2023-02-28T05:59:52.580Z,71.19
2023-02-28T06:02:19.296Z,70.82
2023-02-28T06:04:46.675Z,70.67
2023-02-28T06:07:13.453Z,70.81
2023-02-28T06:09:42.641Z,71.02
2023-02-28T06:12:10.837Z,70.49
2023-02-28T06:14:37.394Z,70.56
2023-02-28T06:17:06.798Z,70.54
2023-02-28T06:19:35.787Z,71.32
2023-02-28T06:22:04.610Z,70.91
2023-02-28T06:24:32.306Z,70.60
2023-02-28T06:27:05.905Z,70.99
2023-02-28T06:29:43.127Z,71.16
2023-02-28T06:32:10.947Z,71.04
2023-02-28T06:34:48.348Z,70.65
2023-02-28T06:37:17.222Z,71.01
2023-02-28T06:39:44.128Z,71.03
2023-02-28T06:42:10.897Z,71.14
2023-02-28T06:44:39.418Z,71.13
2023-02-28T06:47:08.370Z,71.29
2023-02-28T06:49:36.019Z,71.18
2023-02-28T06:52:03.792Z,71.50
2023-02-28T06:54:30.410Z,71.16
2023-02-28T06:56:59.682Z,70.84
2023-02-28T06:59:26.506Z,71.27
2023-02-28T07:01:54.475Z,71.25
2023-02-28T07:04:22.558Z,70.79
2023-02-28T07:06:52.289Z,71.16
2023-02-28T07:09:20.184Z,70.82
2023-02-28T07:11:46.819Z,70.75
2023-02-28T07:14:14.002Z,70.49
2023-02-28T07:16:42.933Z,70.24
2023-02-28T07:19:09.519Z,69.45
2023-02-28T07:21:36.091Z,69.28
2023-02-28T07:24:05.335Z,68.77
2023-02-28T07:26:35.220Z,68.72
2023-02-28T07:29:08.798Z,67.83
2023-02-28T07:31:55.307Z,67.68
2023-02-28T07:34:36.276Z,67.02
2023-02-28T07:37:05.276Z,66.81
2023-02-28T07:39:32.988Z,65.80
2023-02-28T07:42:00.710Z,66.62
2023-02-28T07:44:27.854Z,66.56
2023-02-28T07:46:57.247Z,65.97
2023-02-28T07:49:24.824Z,66.10
2023-02-28T07:51:52.551Z,66.01
2023-02-28T07:54:21.861Z,65.04
2023-02-28T07:56:48.570Z,64.88
2023-02-28T07:59:15.436Z,64.13
2023-02-28T08:01:52.685Z,63.71
2023-02-28T08:04:20.150Z,63.21
2023-02-28T08:06:48.867Z,63.44
2023-02-28T08:09:17.224Z,63.57
2023-02-28T08:11:46.245Z,64.00
2023-02-28T08:14:12.881Z,63.37
2023-02-28T08:16:39.830Z,62.80
2023-02-28T08:19:06.472Z,62.92
2023-02-28T08:21:37.444Z,62.47
2023-02-28T08:24:07.957Z,62.01
2023-02-28T08:26:35.884Z,61.78
2023-02-28T08:29:03.159Z,60.56
2023-02-28T08:31:34.286Z,61.02
2023-02-28T08:34:01.102Z,60.35
2023-02-28T08:36:29.860Z,59.89
2023-02-28T08:38:57.820Z,60.63
2023-02-28T08:41:24.464Z,60.46
2023-02-28T08:43:54.619Z,61.11
2023-02-28T08:46:21.952Z,60.96
2023-02-28T08:48:48.509Z,60.99
2023-02-28T08:51:20.186Z,60.40
2023-02-28T08:54:09.750Z,61.26
2023-02-28T08:56:38.022Z,61.73
2023-02-28T08:59:13.320Z,60.72
2023-02-28T09:01:43.003Z,61.76
2023-02-28T09:04:19.853Z,59.62
2023-02-28T09:06:51.912Z,60.17
2023-02-28T09:09:22.883Z,59.40
2023-02-28T09:11:50.283Z,57.34
2023-02-28T09:14:21.081Z,55.06
2023-02-28T09:16:48.995Z,51.88
2023-02-28T09:19:15.889Z,50.85
2023-02-28T09:21:43.067Z,50.50
2023-02-28T09:24:15.725Z,50.57
2023-02-28T09:26:43.100Z,50.51
2023-02-28T09:29:18.534Z,49.09
2023-02-28T09:31:45.545Z,49.79
2023-02-28T09:34:14.705Z,49.85
2023-02-28T09:36:45.614Z,49.92
2023-02-28T09:39:13.794Z,49.70
2023-02-28T09:41:51.436Z,49.67
2023-02-28T09:44:25.956Z,50.24
2023-02-28T09:46:57.114Z,49.46
2023-02-28T09:49:36.170Z,49.48
2023-02-28T09:52:05.183Z,49.28
2023-02-28T09:54:33.828Z,49.64
2023-02-28T09:57:10.904Z,49.60
2023-02-28T10:00:08.310Z,49.86
2023-02-28T10:02:52.506Z,49.61
2023-02-28T10:05:23.896Z,50.06
2023-02-28T10:07:50.474Z,49.67
2023-02-28T10:10:29.601Z,48.86
2023-02-28T10:13:00.219Z,49.07
2023-02-28T10:15:31.403Z,49.75
2023-02-28T10:18:09.168Z,49.46
2023-02-28T10:20:42.138Z,48.65
2023-02-28T10:23:11.939Z,48.57
2023-02-28T10:25:39.634Z,48.72
2023-02-28T10:28:14.886Z,48.02
2023-02-28T10:30:46.283Z,49.03
2023-02-28T10:33:20.007Z,49.14
2023-02-28T10:35:51.840Z,48.84
2023-02-28T10:38:34.203Z,49.57
2023-02-28T10:41:08.167Z,48.97
2023-02-28T10:43:39.632Z,49.28
2023-02-28T10:46:15.622Z,48.81
2023-02-28T10:49:07.073Z,49.15
2023-02-28T10:51:44.346Z,48.75
2023-02-28T10:54:22.826Z,48.05
2023-02-28T10:57:17.828Z,48.36
2023-02-28T10:59:45.577Z,47.33
2023-02-28T11:02:30.457Z,48.35
2023-02-28T11:04:57.267Z,47.79
2023-02-28T11:07:27.799Z,47.51
2023-02-28T11:09:59.292Z,46.98
2023-02-28T11:12:46.903Z,47.54
2023-02-28T11:15:30.641Z,47.55
2023-02-28T11:18:09.822Z,47.36
2023-02-28T11:20:39.680Z,47.45
2023-02-28T11:23:12.861Z,46.83
2023-02-28T11:25:40.189Z,46.53
2023-02-28T11:28:25.351Z,46.18
2023-02-28T11:31:04.177Z,46.59
2023-02-28T11:33:48.494Z,46.16
2023-02-28T11:36:25.741Z,45.77
2023-02-28T11:39:13.420Z,45.71
2023-02-28T11:42:16.613Z,46.15
2023-02-28T11:44:45.956Z,45.78
2023-02-28T11:47:27.743Z,45.52
2023-02-28T11:50:23.745Z,46.12
2023-02-28T11:53:04.056Z,45.10
2023-02-28T11:55:53.057Z,45.28
2023-02-28T11:58:34.807Z,44.85
2023-02-28T12:01:11.061Z,44.83
2023-02-28T12:03:49.950Z,44.62
2023-02-28T12:06:20.004Z,44.73
2023-02-28T12:08:58.670Z,44.82
2023-02-28T12:11:57.074Z,45.18
2023-02-28T12:14:55.937Z,44.34
2023-02-28T12:17:25.493Z,44.50
2023-02-28T12:20:06.503Z,44.40
2023-02-28T12:22:36.517Z,44.14
2023-02-28T12:25:42.414Z,43.46
2023-02-28T12:28:16.249Z,43.30
2023-02-28T12:30:57.983Z,43.36
2023-02-28T12:33:35.480Z,43.48
2023-02-28T12:36:11.404Z,43.35
2023-02-28T12:39:01.235Z,43.84
2023-02-28T12:41:38.121Z,43.09
2023-02-28T12:44:12.500Z,42.89
2023-02-28T12:46:56.994Z,43.37
2023-02-28T12:49:43.381Z,43.19
2023-02-28T12:52:27.119Z,43.04
2023-02-28T12:55:10.917Z,43.13
2023-02-28T12:57:41.653Z,42.62
2023-02-28T13:00:20.725Z,43.03
2023-02-28T13:02:57.686Z,42.56
2023-02-28T13:06:03.204Z,43.59
2023-02-28T13:09:06.033Z,43.79
2023-02-28T13:11:42.342Z,43.36
2023-02-28T13:14:28.676Z,43.91
2023-02-28T13:17:03.345Z,42.82
2023-02-28T13:19:49.870Z,42.83
2023-02-28T13:22:45.559Z,42.95
2023-02-28T13:25:26.621Z,42.42
2023-02-28T13:28:01.926Z,42.40
2023-02-28T13:30:57.054Z,43.27
2023-02-28T13:33:29.939Z,42.88
2023-02-28T13:36:31.767Z,42.75
2023-02-28T13:39:05.339Z,42.98
2023-02-28T13:41:32.530Z,43.02
2023-02-28T13:44:07.481Z,43.23
2023-02-28T13:46:38.333Z,43.03
2023-02-28T13:49:21.790Z,43.00
2023-02-28T13:51:52.109Z,43.11
2023-02-28T13:54:47.158Z,43.23
2023-02-28T13:57:16.257Z,42.60
2023-02-28T14:00:21.054Z,43.31
2023-02-28T14:03:13.240Z,43.05
2023-02-28T14:05:45.799Z,43.07
2023-02-28T14:08:19.522Z,42.92
2023-02-28T14:10:52.996Z,43.44
2023-02-28T14:13:46.365Z,43.17
2023-02-28T14:16:22.261Z,43.05
2023-02-28T14:19:12.447Z,42.81
2023-02-28T14:22:07.582Z,42.48
2023-02-28T14:24:53.276Z,42.93
2023-02-28T14:27:42.744Z,43.08
2023-02-28T14:30:41.233Z,43.38
2023-02-28T14:36:19.567Z,42.90
2023-02-28T14:38:56.628Z,42.51
2023-02-28T14:41:39.341Z,43.01
2023-02-28T14:44:24.224Z,42.57
2023-02-28T14:47:08.417Z,42.55
2023-02-28T14:49:45.240Z,43.13
2023-02-28T14:52:33.523Z,42.84
2023-02-28T14:55:05.212Z,42.51
2023-02-28T14:57:52.762Z,42.62
2023-02-28T15:00:25.941Z,42.26
2023-02-28T15:02:55.270Z,42.43
2023-02-28T15:05:39.816Z,42.76
2023-02-28T15:08:21.472Z,42.57
2023-02-28T15:11:00.305Z,42.79
2023-02-28T15:13:46.181Z,42.54
2023-02-28T15:19:24.229Z,42.42
2023-02-28T15:22:06.505Z,42.53
2023-02-28T15:24:36.127Z,42.49
2023-02-28T15:27:12.144Z,42.56
2023-02-28T15:29:47.316Z,41.95
2023-02-28T15:32:37.004Z,42.81
2023-02-28T15:35:43.242Z,42.96
2023-02-28T15:38:29.554Z,43.09
2023-02-28T15:40:59.740Z,43.20
2023-02-28T15:43:37.508Z,43.21
2023-02-28T15:46:05.757Z,42.89
2023-02-28T15:48:37.143Z,42.82
2023-02-28T15:51:03.800Z,42.80
2023-02-28T15:53:34.680Z,42.75
2023-02-28T15:56:09.460Z,43.06
2023-02-28T15:58:38.376Z,42.14
2023-02-28T16:01:10.590Z,42.60
2023-02-28T16:03:52.891Z,42.74
2023-02-28T16:06:42.010Z,43.23
2023-02-28T16:09:19.526Z,43.00
2023-02-28T16:11:52.969Z,43.14
2023-02-28T16:14:31.689Z,43.25
2023-02-28T16:17:11.703Z,43.87
2023-02-28T16:19:39.859Z,43.85
2023-02-28T16:22:11.171Z,43.46
2023-02-28T16:24:42.054Z,43.80
2023-02-28T16:27:33.263Z,44.16
2023-02-28T16:30:08.156Z,44.22
2023-02-28T16:32:39.180Z,44.49
2023-02-28T16:35:25.242Z,44.61
2023-02-28T16:37:56.085Z,44.54
2023-02-28T16:40:26.568Z,44.15
2023-02-28T16:42:59.562Z,44.53
2023-02-28T16:45:31.692Z,44.96
2023-02-28T16:47:59.532Z,44.62
2023-02-28T16:50:31.446Z,45.26
2023-02-28T16:52:59.357Z,45.04
2023-02-28T16:55:46.480Z,44.96
2023-02-28T16:58:32.238Z,45.09
2023-02-28T17:01:01.395Z,45.59
2023-02-28T17:03:33.685Z,45.35
2023-02-28T17:06:01.946Z,45.88
2023-02-28T17:08:52.818Z,45.90
2023-02-28T17:11:23.491Z,46.24
2023-02-28T17:13:55.163Z,46.18
2023-02-28T17:16:35.957Z,46.30
2023-02-28T17:19:06.090Z,46.84
2023-02-28T17:21:34.440Z,47.04
2023-02-28T17:24:22.246Z,47.09
2023-02-28T17:26:53.330Z,47.18
2023-02-28T17:29:22.844Z,46.79
2023-02-28T17:31:49.551Z,47.62
2023-02-28T17:34:19.342Z,47.44
2023-02-28T17:36:49.712Z,47.74
2023-02-28T17:39:24.872Z,47.86
2023-02-28T17:41:56.137Z,47.40
2023-02-28T17:44:24.916Z,47.62
2023-02-28T17:46:52.878Z,48.22
2023-02-28T17:49:19.917Z,48.26
2023-02-28T17:51:47.379Z,48.41
2023-02-28T17:54:15.079Z,47.74
2023-02-28T17:56:44.031Z,48.23
2023-02-28T17:59:11.468Z,48.85
2023-02-28T18:01:38.170Z,48.77
2023-02-28T18:04:04.982Z,49.30
2023-02-28T18:06:52.312Z,49.12
2023-02-28T18:09:23.447Z,49.92
2023-02-28T18:11:55.147Z,49.45
2023-02-28T18:14:24.532Z,49.42
2023-02-28T18:16:51.731Z,50.12
2023-02-28T18:19:18.831Z,50.31
2023-02-28T18:21:50.609Z,50.37
2023-02-28T18:24:19.256Z,50.55
2023-02-28T18:26:46.171Z,50.18
2023-02-28T18:29:25.052Z,50.71
2023-02-28T18:31:53.024Z,50.33
2023-02-28T18:34:21.206Z,50.48
2023-02-28T18:36:48.826Z,50.99
2023-02-28T18:39:20.743Z,50.64
2023-02-28T18:41:47.525Z,51.55
2023-02-28T18:44:20.317Z,51.64
2023-02-28T18:46:49.048Z,51.52
2023-02-28T18:49:15.849Z,52.16
2023-02-28T18:51:46.623Z,51.77
2023-02-28T18:54:14.543Z,52.65
2023-02-28T18:56:41.294Z,52.81
2023-02-28T18:59:15.221Z,52.60
2023-02-28T19:01:44.568Z,53.01
2023-02-28T19:04:13.937Z,55.88
2023-02-28T19:06:42.089Z,54.50
2023-02-28T19:09:09.716Z,54.07
2023-02-28T19:11:36.891Z,54.25
2023-02-28T19:14:03.555Z,54.65
2023-02-28T19:16:32.825Z,54.80
2023-02-28T19:19:01.861Z,53.61
2023-02-28T19:21:28.512Z,54.09
2023-02-28T19:23:55.153Z,54.80
2023-02-28T19:26:25.162Z,54.56
2023-02-28T19:28:51.761Z,54.25
2023-02-28T19:31:24.190Z,54.92
2023-02-28T19:33:53.587Z,54.87
2023-02-28T19:36:21.065Z,54.95
2023-02-28T19:38:48.194Z,55.03
2023-02-28T19:41:16.650Z,55.03
2023-02-28T19:43:43.572Z,55.00
2023-02-28T19:46:11.922Z,54.96
2023-02-28T19:48:42.498Z,54.73
2023-02-28T19:51:13.477Z,54.66
2023-02-28T19:53:41.684Z,55.17
2023-02-28T19:56:09.383Z,55.11
2023-02-28T19:58:39.333Z,55.06
2023-02-28T20:01:14.901Z,54.63
2023-02-28T20:03:42.201Z,54.92
2023-02-28T20:06:13.696Z,54.99
2023-02-28T20:08:40.589Z,54.92
2023-02-28T20:11:10.438Z,54.90
2023-02-28T20:13:37.356Z,54.97
2023-02-28T20:16:07.100Z,55.50
2023-02-28T20:18:36.648Z,55.79
2023-02-28T20:21:08.557Z,55.67
2023-02-28T20:23:35.496Z,55.53
2023-02-28T20:26:02.294Z,55.60
2023-02-28T20:28:28.915Z,55.54
2023-02-28T20:30:55.926Z,55.67
2023-02-28T20:33:22.881Z,55.56
2023-02-28T20:35:52.672Z,55.60
2023-02-28T20:38:21.915Z,55.51
2023-02-28T20:40:48.571Z,55.78
2023-02-28T20:43:17.563Z,55.89
2023-02-28T20:45:51.736Z,55.96
2023-02-28T20:48:20.648Z,56.34
2023-02-28T20:50:52.117Z,56.22
2023-02-28T20:53:19.285Z,56.21
2023-02-28T20:56:00.564Z,56.52
2023-02-28T20:58:34.126Z,56.83
2023-02-28T21:01:26.479Z,56.73
2023-02-28T21:03:58.772Z,56.59
2023-02-28T21:06:33.130Z,56.40
2023-02-28T21:09:07.950Z,56.45
2023-02-28T21:11:39.396Z,56.86
2023-02-28T21:14:11.369Z,56.63
2023-02-28T21:16:40.522Z,56.61
2023-02-28T21:19:07.242Z,56.78
2023-02-28T21:21:43.827Z,56.78
2023-02-28T21:24:14.426Z,56.71
2023-02-28T21:26:42.141Z,57.14
2023-02-28T21:29:14.844Z,57.01
2023-02-28T21:31:41.570Z,57.46
2023-02-28T21:34:11.454Z,57.62
2023-02-28T21:36:41.077Z,57.48
2023-02-28T21:39:19.293Z,57.05
2023-02-28T21:41:48.290Z,57.38
2023-02-28T21:44:24.057Z,57.44
2023-02-28T21:46:54.927Z,57.38
2023-02-28T21:49:25.439Z,57.53
2023-02-28T21:51:52.142Z,57.39
2023-02-28T21:54:18.815Z,57.38
2023-02-28T21:56:50.490Z,57.35
2023-02-28T21:59:17.974Z,57.25
2023-02-28T22:01:45.396Z,57.31
2023-02-28T22:04:23.553Z,57.50
2023-02-28T22:06:57.265Z,57.89
2023-02-28T22:09:28.916Z,57.89
2023-02-28T22:11:58.428Z,57.68
2023-02-28T22:14:25.152Z,57.69
2023-02-28T22:16:56.930Z,58.05
2023-02-28T22:19:24.539Z,58.03
2023-02-28T22:21:53.713Z,58.28
2023-02-28T22:24:24.637Z,58.53
2023-02-28T22:26:52.226Z,58.38
2023-02-28T22:29:19.041Z,58.33
2023-02-28T22:31:45.865Z,58.43
2023-02-28T22:34:13.057Z,58.62
2023-02-28T22:36:43.595Z,58.42
2023-02-28T22:39:13.599Z,58.06
2023-02-28T22:41:40.624Z,58.11
2023-02-28T22:44:07.535Z,57.76
2023-02-28T22:46:37.488Z,57.90
2023-02-28T22:49:07.830Z,57.60
2023-02-28T22:51:35.131Z,57.52
2023-02-28T22:54:02.260Z,57.84
2023-02-28T22:56:30.785Z,57.66
2023-02-28T22:58:59.886Z,57.98
2023-02-28T23:01:29.667Z,57.85
2023-02-28T23:03:57.157Z,57.87
2023-02-28T23:06:25.254Z,58.06
2023-02-28T23:08:56.056Z,58.60
2023-02-28T23:11:34.052Z,58.26
2023-02-28T23:14:01.140Z,58.42
2023-02-28T23:16:45.065Z,58.51
2023-02-28T23:19:22.038Z,58.23
2023-02-28T23:21:51.149Z,58.06
2023-02-28T23:24:21.326Z,58.18
2023-02-28T23:26:51.153Z,58.38
2023-02-28T23:29:22.893Z,58.50
2023-02-28T23:31:50.520Z,57.82
2023-02-28T23:34:24.816Z,58.65
2023-02-28T23:36:52.058Z,58.58
2023-02-28T23:39:19.690Z,58.75
2023-02-28T23:41:46.816Z,58.93
2023-02-28T23:44:16.881Z,59.02
2023-02-28T23:46:49.325Z,58.87
2023-02-28T23:49:19.969Z,58.98
2023-02-28T23:51:49.395Z,58.96
2023-02-28T23:54:17.443Z,58.87
2023-02-28T23:56:44.772Z,59.01
2023-02-28T23:59:14.260Z,59.46
